KMUO

Mountain Home AFB Airport

Mountain Home, Idaho, USA
METAR KMUO 230058Z 21014G21KT 10SM -RA SCT041 BKN060 OVC080 16/10 A2995 RMK AO2A RAB27E37DZB37E38RAB38 SLP139 P0001 T01570098
Observed Flight Rules
Oct-23 @ 00:58 UTC (16 minutes ago) Visual Flight Rules
Wind Visibility Clouds Conditions
210° at 14 knots
 Gusting to 21 knots
10 miles
  • Scattered at 4,100' AGL
  • Broken at 6,000' AGL
  • Overcast at 8,000' AGL
  • Light Rain
Temperatures Readings Precipitation
Current 16°C / 61°F
Dewpoint 10°C / 50°F
Humidity 68%
Altimeter 29.95" Hg
Pressure 1013.9 hPa
Elevation 913
Current Rain 0.01
METAR KMUO 230058Z 21014G21KT 10SM -RA SCT041 BKN060 OVC080 16/10 A2995 RMK AO2A RAB27E37DZB37E38RAB38 SLP139 P0001 T01570098
Observed Flight Rules
Oct-23 @ 00:58 UTC
(16 minutes ago)
VFR
Wind Visibility
210° at 14 knots
 Gusting to 21 knots
10 miles
Clouds
  • Scattered at 4,100' AGL
  • Broken at 6,000' AGL
  • Overcast at 8,000' AGL
Conditions
  • Light Rain
Temperature Dewpoint
16°C / 61°F 10°C / 50°F
Humidity Altimeter Pressure
68% 29.95" Hg 1013.9 hPa
Current Rain
0.01